This is the latest recevied weather packets stored in our database for station/object N3WMC. If no packets are shown the sender has not sent any weather packets the latest 10 day(s).
| Time | Temp. | Humidity | Pressure | Rain* | Wind** | Luminosity | Snow |
|---|---|---|---|---|---|---|---|
| 1787687974 | 26.11° C | 59% | 1019.1 hPa | 0 mm | - | 379 W/m² | - |
| 1787687670 | 25.56° C | 56% | 1019.1 hPa | 0 mm | - | 394 W/m² | - |
| 1787687365 | 26.11° C | 56% | 1019.2 hPa | 0 mm | - | 417 W/m² | - |
| 1787687061 | 25° C | 59% | 1019 hPa | 0 mm | - | 420 W/m² | - |
| 1787686756 | 26.11° C | 59% | 1019.1 hPa | 0 mm | - | 423 W/m² | - |
| 1787686452 | 25.56° C | 62% | 1019.3 hPa | 0 mm | - | 444 W/m² | - |
| 1787686148 | 25.56° C | 61% | 1019.5 hPa | 0 mm | - | 463 W/m² | - |
| 1787685843 | 25.56° C | 60% | 1019.2 hPa | 0 mm | - | 515 W/m² | - |
| 1787685537 | 25.56° C | 60% | 1019.3 hPa | 0 mm | - | 489 W/m² | - |
| 1787685237 | 25.56° C | 58% | 1019.5 hPa | 0 mm | - | 484 W/m² | - |
| 1787684932 | 25° C | 61% | 1019.4 hPa | 0 mm | - | 108 W/m² | - |
| 1787684628 | 25° C | 62% | 1019.5 hPa | 0 mm | - | 525 W/m² | - |
| 1787684327 | 25° C | 61% | 1019.6 hPa | 0 mm | - | 130 W/m² | - |
| 1787684023 | 26.11° C | 60% | 1019.8 hPa | 0 mm | - | 557 W/m² | - |
| 1787683721 | 25.56° C | 58% | 1019.8 hPa | 0 mm | - | 545 W/m² | - |
| 1787683417 | 25° C | 60% | 1019.9 hPa | 0 mm | - | 549 W/m² | - |
| 1787683113 | 23.89° C | 62% | 1020.3 hPa | 0 mm | - | 572 W/m² | - |
| 1787682810 | 24.44° C | 64% | 1020.1 hPa | 0 mm | - | 102 W/m² | - |
| 1787682506 | 25° C | 63% | 1020.2 hPa | 0 mm | - | 123 W/m² | - |
| 1787682201 | 25.56° C | 60% | 1020 hPa | 0 mm | - | 173 W/m² | - |
| 1787681897 | 24.44° C | 61% | 1020.1 hPa | 0 mm | - | 321 W/m² | - |
| 1787681596 | 25° C | 59% | 1020.3 hPa | 0 mm | - | 570 W/m² | - |
| 1787681291 | 25° C | 60% | 1020.4 hPa | 0 mm | - | 535 W/m² | - |
| 1787680987 | 25.56° C | 59% | 1020.2 hPa | 0 mm | - | 214 W/m² | - |
| 1787680686 | 24.44° C | 65% | 1020.4 hPa | 0 mm | - | 320 W/m² | - |
* Rain latest hour (hover to see other rain measurements)
** Current wind speed in m/s (hover to see current wind gust speed)